CheckWX is a tool to help pilots better visualize weather data.  It is not intended as a substitute for an official pre-flight weather briefing.

04:49:35 UTC

KHRJ METAR
Harnett Regional Jetport Airport
Erwin, North Carolina, USA
Current

35 mins ago

KHRJ 270415Z AUTO 00000KT 10SM CLR 23/22 A3013 RMK AO2 T02260215
Observed
Jun-27 @ 04:15 UTC
Visibility
10 SM
Flight Rules
VFR
Cloud Levels
  • Clear skies
Temperature
23°C / 73°F
Dewpoint
22°C / 72°F
Humidity
94%
Altimeter
30.13" Hg
Pressure
1020.32 hPa
Previous

55 mins ago

KHRJ 270355Z AUTO 31003KT 10SM CLR 22/21 A3013 RMK AO2 T02220206
Observed
Jun-27 @ 03:55 UTC
Wind
  • 310° at 3 KTS
Visibility
10 SM
Flight Rules
VFR
Cloud Levels
  • Clear skies
Temperature
22°C / 72°F
Dewpoint
21°C / 70°F
Humidity
94%
Altimeter
30.13" Hg
Pressure
1020.32 hPa
Previous

1 hour ago

KHRJ 270335Z AUTO 00000KT 10SM CLR 23/20 A3013 RMK AO2 T02300198
Observed
Jun-27 @ 03:35 UTC
Visibility
10 SM
Flight Rules
VFR
Cloud Levels
  • Clear skies
Temperature
23°C / 73°F
Dewpoint
20°C / 68°F
Humidity
83%
Altimeter
30.13" Hg
Pressure
1020.32 hPa